Time;durP1;ratioP1;P1;durP2;ratioP2;P2;SDS_P1;SDS_P2;PMS_P1;PMS_P2;Temp;Humidity;BMP_temperature;BMP_pressure;BME280_temperature;BME280_humidity;BME280_pressure;Samples;Min_cycle;Max_cycle;Signal;HPM_P1;HPM_P2
2023/10/10 00:01:04;;;;;;;4.28;2.92;;;;;;;3.35;78.34;98409.97;5025435;28;20046;-68
2023/10/10 00:03:31;;;;;;;4.00;2.75;;;;;;;3.37;78.56;98408.09;5057168;28;20043;-67
2023/10/10 00:05:59;;;;;;;4.07;3.30;;;;;;;3.39;78.53;98411.47;5055979;28;20035;-67
2023/10/10 00:08:33;;;;;;;3.95;3.17;;;;;;;3.41;78.62;98414.84;5055803;28;20056;-69
2023/10/10 00:10:58;;;;;;;;;;;;;;;3.50;78.00;98398.50;5057808;28;20047;-67
2023/10/10 00:13:24;;;;;;;5.03;2.90;;;;;;;3.45;77.60;98411.09;5054491;28;19920;-71
2023/10/10 00:16:05;;;;;;;3.25;2.65;;;;;;;3.40;77.89;98419.28;5056566;28;20051;-67
2023/10/10 00:18:30;;;;;;;2.97;2.28;;;;;;;3.39;78.30;98437.81;5051253;28;20052;-72
2023/10/10 00:21:06;;;;;;;3.83;2.45;;;;;;;3.40;78.58;98424.56;5054350;28;20047;-73
2023/10/10 00:23:42;;;;;;;2.78;2.47;;;;;;;3.43;78.12;98413.84;5026455;28;20070;-72
2023/10/10 00:26:11;;;;;;;3.00;2.33;;;;;;;3.39;78.28;98448.34;5056769;28;20489;-72
2023/10/10 00:28:41;;;;;;;2.78;2.58;;;;;;;3.42;77.92;98435.00;5035691;28;20052;-74
2023/10/10 00:31:10;;;;;;;4.35;2.70;;;;;;;;;;5025516;28;20048;-72
2023/10/10 00:33:38;;;;;;;3.88;2.78;;;;;;;3.47;nan;98432.94;5043589;28;20052;-72
2023/10/10 00:36:03;;;;;;;4.07;2.88;;;;;;;3.48;nan;98427.56;5055599;28;20050;-73
2023/10/10 00:38:29;;;;;;;9.43;2.88;;;;;;;3.46;nan;98423.34;5038434;28;20052;-73
2023/10/10 00:40:57;;;;;;;4.25;3.15;;;;;;;3.43;nan;98423.53;5055208;28;20051;-73
2023/10/10 00:43:24;;;;;;;3.85;2.30;;;;;;;3.43;nan;98439.31;5036904;28;20056;-70
2023/10/10 00:45:53;;;;;;;5.20;3.00;;;;;;;3.44;nan;98441.03;5056054;28;20046;-76
2023/10/10 00:48:22;;;;;;;4.38;3.38;;;;;;;3.46;nan;98429.47;5040638;28;20048;-76
2023/10/10 00:50:51;;;;;;;3.25;2.72;;;;;;;3.49;nan;98545.22;5056535;28;20047;-71
2023/10/10 00:53:20;;;;;;;5.00;3.38;;;;;;;3.52;nan;98438.75;5054287;28;20036;-72
2023/10/10 00:55:55;;;;;;;6.43;3.25;;;;;;;3.52;nan;98438.75;5037960;28;20417;-71
2023/10/10 00:58:22;;;;;;;6.07;3.53;;;;;;;3.54;nan;98442.16;5052100;28;20048;-73
2023/10/10 01:00:49;;;;;;;5.88;4.28;;;;;;;3.54;nan;98442.16;5055213;28;20383;-72
2023/10/10 01:03:20;;;;;;;4.65;3.47;;;;;;;3.57;nan;98442.81;5056139;28;20051;-73
2023/10/10 01:05:52;;;;;;;6.95;3.30;;;;;;;3.58;nan;98439.25;5054762;28;20054;-68
2023/10/10 01:08:19;;;;;;;6.07;3.50;;;;;;;3.59;nan;98442.72;5037005;28;20422;-67
2023/10/10 01:10:48;;;;;;;4.15;3.15;;;;;;;3.59;nan;98451.47;5054747;28;20044;-67
2023/10/10 01:13:13;;;;;;;4.70;3.15;;;;;;;3.58;nan;98435.75;5055630;28;20048;-67
2023/10/10 01:15:38;;;;;;;2.72;2.47;;;;;;;3.58;nan;98439.25;5056236;28;20039;-68
2023/10/10 01:18:13;;;;;;;4.93;3.10;;;;;;;3.59;nan;98442.72;5054968;28;20059;-67
2023/10/10 01:20:47;;;;;;;2.88;2.28;;;;;;;3.59;nan;98466.44;5037835;28;20410;-66
2023/10/10 01:23:26;;;;;;;3.55;2.65;;;;;;;3.59;nan;98445.34;5054783;28;20056;-71
2023/10/10 01:25:52;;;;;;;3.38;2.60;;;;;;;3.58;nan;98448.94;5055382;28;20055;-73
2023/10/10 01:33:23;;;;;;;2.63;2.33;;;;;;;3.54;nan;98458.81;5055616;28;20059;-70
2023/10/10 01:35:56;;;;;;;3.40;2.72;;;;;;;3.52;nan;98470.38;5049807;28;20040;-71
2023/10/10 01:38:55;;;;;;;3.75;2.85;;;;;;;3.56;nan;98467.47;5053902;28;20498;-70
2023/10/10 01:41:31;;;;;;;2.45;2.25;;;;;;;3.51;nan;98464.25;5041628;28;20039;-70
2023/10/10 01:44:08;;;;;;;3.58;2.78;;;;;;;3.50;nan;98477.56;5051284;28;20064;-71
2023/10/10 01:47:18;;;;;;;3.53;2.47;;;;;;;3.51;77.21;98458.13;5138229;27;20532;-74
2023/10/10 01:49:45;;;;;;;2.80;2.33;;;;;;;3.49;77.74;98465.31;5096555;27;20408;-74
2023/10/10 01:52:17;;;;;;;3.83;2.72;;;;;;;3.46;77.55;98466.34;5098697;27;20042;-73
2023/10/10 01:54:45;;;;;;;3.25;2.38;;;;;;;3.45;77.82;98466.44;5074504;27;20042;-74
2023/10/10 01:57:21;;;;;;;3.92;2.28;;;;;;;3.44;77.82;98472.63;5132725;27;20392;-71
2023/10/10 01:59:46;;;;;;;3.55;2.75;;;;;;;3.44;77.61;98451.56;5106724;27;20046;-71
2023/10/10 02:02:16;;;;;;;3.63;2.55;;;;;;;3.40;77.52;98465.84;5073584;27;20051;-70
2023/10/10 02:04:42;;;;;;;5.13;2.35;;;;;;;3.36;77.38;98474.91;5091872;27;20054;-70
2023/10/10 02:07:15;;;;;;;3.00;2.42;;;;;;;;;;5132897;27;20049;-71
2023/10/10 02:09:43;;;;;;;3.63;2.72;;;;;;;3.36;nan;98469.63;5087856;27;20057;-70
2023/10/10 02:12:15;;;;;;;4.65;2.58;;;;;;;3.31;nan;98461.16;5122653;27;20043;-70
2023/10/10 02:14:44;;;;;;;3.28;2.55;;;;;;;3.27;nan;98476.31;5106599;27;20038;-74
2023/10/10 02:17:20;;;;;;;2.45;2.25;;;;;;;3.26;nan;98475.47;5109142;27;20046;-74
2023/10/10 02:19:57;;;;;;;3.45;2.80;;;;;;;3.25;nan;98486.94;5129668;27;20050;-74
2023/10/10 02:22:49;;;;;;;5.32;2.22;;;;;;;3.27;nan;98482.41;5106587;27;20027;-73
2023/10/10 02:28:00;;;;;;;3.53;2.65;;;;;;;3.24;nan;98493.13;5118847;27;20062;-73
2023/10/10 02:30:35;;;;;;;3.05;2.60;;;;;;;3.23;nan;98549.38;5099213;27;20054;-71
2023/10/10 02:35:54;;;;;;;8.13;3.80;;;;;;;3.22;nan;98496.78;5107282;27;20037;-73
2023/10/10 02:38:34;;;;;;;2.20;1.92;;;;;;;3.24;nan;98487.03;5131007;27;20046;-72
2023/10/10 02:44:26;;;;;;;2.15;1.80;;;;;;;3.17;nan;98491.78;5088674;28;20070;-73
2023/10/10 02:46:41;;;;;;;2.80;2.28;;;;;;;3.16;nan;98478.75;5073232;28;20050;-73
2023/10/10 02:49:23;;;;;;;2.75;2.47;;;;;;;3.13;nan;98487.66;5101987;27;20055;-76
2023/10/10 02:51:55;;;;;;;4.00;2.67;;;;;;;3.10;nan;98479.94;5062189;27;20046;-70
2023/10/10 02:56:57;;;;;;;2.83;2.22;;;;;;;3.04;nan;98501.38;5106906;27;20493;-70
2023/10/10 02:59:38;;;;;;;4.65;2.25;;;;;;;2.97;nan;98478.13;5084876;27;20521;-71
2023/10/10 03:02:11;;;;;;;4.00;2.83;;;;;;;2.90;nan;98493.44;5096741;27;20051;-69
2023/10/10 03:07:29;;;;;;;4.40;2.77;;;;;;;2.94;nan;98494.94;5089729;27;20489;-70
2023/10/10 03:10:46;;;;;;;4.47;2.83;;;;;;;2.97;nan;98494.78;5069783;27;20055;-71
2023/10/10 03:12:49;;;;;;;3.42;2.72;;;;;;;2.97;nan;98530.78;5049104;27;20047;-70
2023/10/10 03:17:49;;;;;;;3.08;2.50;;;;;;;2.98;nan;98506.16;5079686;27;20058;-69
2023/10/10 03:26:35;;;;;;;3.90;2.90;;;;;;;3.06;nan;98519.69;5080757;27;20047;-73
2023/10/10 03:28:41;;;;;;;3.47;2.72;;;;;;;;;;5055214;28;20051;-74
2023/10/10 05:25:10;;;;;;;4.77;3.20;;;;;;;3.40;nan;98634.44;5054304;28;20390;-74
2023/10/10 05:27:41;;;;;;;6.72;4.10;;;;;;;3.41;nan;98637.00;5042392;28;20051;-76
2023/10/10 05:30:07;;;;;;;6.38;3.67;;;;;;;3.42;nan;98632.59;5111725;27;20038;-78
2023/10/10 05:32:32;;;;;;;5.20;3.85;;;;;;;3.48;nan;98674.41;5083341;27;20531;-77
2023/10/10 05:34:58;;;;;;;6.60;4.10;;;;;;;3.54;nan;98637.97;5099269;27;20076;-74
2023/10/10 05:37:24;;;;;;;4.78;3.15;;;;;;;3.59;nan;98645.63;5099089;27;20038;-76
2023/10/10 05:39:56;;;;;;;5.15;3.40;;;;;;;3.59;nan;98635.09;5099608;27;20055;-78
2023/10/10 05:42:26;;;;;;;4.95;3.42;;;;;;;3.58;nan;98651.84;5064561;27;20043;-77
2023/10/10 05:44:52;;;;;;;4.93;3.22;;;;;;;3.55;nan;98650.22;5064649;27;20047;-76
2023/10/10 05:47:17;;;;;;;4.82;3.28;;;;;;;3.61;nan;98670.94;5064603;27;20049;-78
2023/10/10 05:49:43;;;;;;;4.95;3.30;;;;;;;3.66;nan;98657.50;5063914;27;20054;-78
2023/10/10 05:52:08;;;;;;;4.18;3.38;;;;;;;3.61;nan;98665.66;5080998;27;20550;-77
2023/10/10 05:54:34;;;;;;;4.05;3.00;;;;;;;3.61;nan;98665.66;5080833;27;20055;-77
2023/10/10 05:56:59;;;;;;;4.47;3.58;;;;;;;3.56;nan;98657.19;5080548;27;20046;-78
2023/10/10 05:59:24;;;;;;;3.40;2.72;;;;;;;3.59;nan;98657.03;5082618;27;20046;-78
2023/10/10 06:01:50;;;;;;;3.17;2.47;;;;;;;3.64;nan;98680.44;5100614;27;20058;-77
2023/10/10 06:04:15;;;;;;;3.20;2.63;;;;;;;3.68;nan;98696.94;5099757;27;20058;-77
2023/10/10 06:06:42;;;;;;;6.70;3.47;;;;;;;3.71;nan;98676.53;5099814;27;20523;-77
2023/10/10 06:09:18;;;;;;;4.40;3.28;;;;;;;3.78;nan;98687.56;5099091;27;20043;-77
2023/10/10 06:11:44;;;;;;;5.88;3.05;;;;;;;3.84;nan;98680.13;5089659;27;20039;-77
2023/10/10 06:14:09;;;;;;;4.55;3.08;;;;;;;3.87;nan;98671.19;5119152;27;20043;-78
2023/10/10 06:16:35;;;;;;;4.78;3.15;;;;;;;3.85;nan;98687.09;5100596;27;20053;-77
2023/10/10 06:19:01;;;;;;;4.00;2.45;;;;;;;3.83;nan;98688.16;5066284;27;20436;-76
2023/10/10 06:21:26;;;;;;;4.10;3.08;;;;;;;3.84;nan;98688.03;5119226;27;20045;-77
2023/10/10 06:23:51;;;;;;;3.83;2.75;;;;;;;3.82;nan;98684.66;5082869;27;20042;-76
2023/10/10 06:26:21;;;;;;;3.88;2.90;;;;;;;3.87;nan;98689.63;5081905;27;20043;-75
2023/10/10 06:28:47;;;;;;;4.00;3.05;;;;;;;3.90;nan;98687.69;5075440;27;20047;-76
2023/10/10 06:31:17;;;;;;;4.90;3.30;;;;;;;3.93;nan;98708.59;5097610;27;20043;-77
2023/10/10 06:33:43;;;;;;;4.63;3.42;;;;;;;3.91;nan;98715.75;5101763;27;20043;-75
2023/10/10 06:36:32;;;;;;;3.50;2.72;;;;;;;3.91;nan;98699.91;5060616;27;20047;-75
2023/10/10 06:41:47;;;;;;;11.60;2.63;;;;;;;3.91;nan;98715.75;5082591;27;20053;-79
2023/10/10 06:44:17;;;;;;;5.25;3.00;;;;;;;3.88;nan;98710.63;5048165;27;20054;-75
2023/10/10 06:46:47;;;;;;;4.07;3.33;;;;;;;3.75;nan;98698.28;5072755;27;20538;-78
2023/10/10 06:49:14;;;;;;;3.83;2.72;;;;;;;3.74;nan;98713.22;5122799;27;20500;-76
2023/10/10 06:51:39;;;;;;;3.58;2.97;;;;;;;3.72;nan;98722.19;5104746;27;20046;-77
2023/10/10 06:54:08;;;;;;;4.38;3.40;;;;;;;3.70;nan;98726.69;5085945;27;20046;-76
2023/10/10 06:56:44;;;;;;;4.55;3.75;;;;;;;3.69;nan;98740.81;5085470;27;20043;-75
2023/10/10 06:59:16;;;;;;;6.47;4.45;;;;;;;3.65;nan;98713.78;5084281;27;20047;-73
2023/10/10 07:01:41;;;;;;;6.47;3.95;;;;;;;3.64;nan;98733.16;5092771;27;20050;-75
2023/10/10 07:04:11;;;;;;;4.35;3.30;;;;;;;3.67;nan;98738.25;5082116;27;20047;-74
2023/10/10 07:06:36;;;;;;;3.60;2.83;;;;;;;3.67;nan;98727.72;5080378;27;20055;-75
2023/10/10 07:09:27;;;;;;;5.43;3.00;;;;;;;3.69;nan;98736.41;5081543;27;20404;-75
2023/10/10 07:11:54;;;;;;;3.38;2.35;;;;;;;3.69;nan;98756.63;5064866;27;20034;-76
2023/10/10 07:14:19;;;;;;;2.75;2.40;;;;;;;3.66;nan;98768.19;5064698;27;20066;-76
2023/10/10 07:16:44;;;;;;;3.72;2.97;;;;;;;3.68;nan;98739.13;5086825;27;20035;-75
2023/10/10 07:22:08;;;;;;;3.88;3.00;;;;;;;3.76;nan;98743.00;5040887;28;20091;-76
2023/10/10 07:24:40;;;;;;;5.82;3.63;;;;;;;3.79;nan;98742.81;5040865;28;20087;-75
2023/10/10 07:27:11;;;;;;;4.18;3.30;;;;;;;3.80;nan;98712.03;5039601;28;20051;-76
2023/10/10 07:32:16;;;;;;;4.97;3.37;;;;;;;3.86;nan;98744.16;5053901;28;20498;-76
2023/10/10 07:34:49;;;;;;;4.97;3.70;;;;;;;3.86;nan;98765.25;5056774;28;20048;-77
2023/10/10 07:37:15;;;;;;;2.90;2.55;;;;;;;3.86;nan;98759.13;5040684;28;20040;-75
2023/10/10 07:42:27;;;;;;;5.18;3.10;;;;;;;3.82;nan;98763.75;5039628;28;20048;-76
2023/10/10 07:44:56;;;;;;;3.65;3.10;;;;;;;3.82;nan;98778.72;5038942;28;20056;-74
2023/10/10 07:47:25;;;;;;;6.07;2.95;;;;;;;3.76;nan;98800.13;5020892;28;20545;-77
2023/10/10 07:49:55;;;;;;;3.00;2.53;;;;;;;3.80;nan;98770.88;5002761;28;20058;-76
2023/10/10 07:52:20;;;;;;;3.17;2.47;;;;;;;3.84;nan;98771.53;5037727;28;20056;-74
2023/10/10 07:54:51;;;;;;;4.85;2.53;;;;;;;3.92;nan;98775.44;5038656;28;20047;-77
2023/10/10 07:57:22;;;;;;;11.05;2.85;;;;;;;4.00;nan;98772.34;5040051;28;20040;-80
2023/10/10 07:59:58;;;;;;;3.53;2.88;;;;;;;4.06;nan;98779.06;5119427;27;20077;-76
2023/10/10 08:04:56;;;;;;;4.35;3.22;;;;;;;4.10;nan;98793.75;5082894;27;20062;-74
2023/10/10 08:07:26;;;;;;;3.55;2.90;;;;;;;4.17;nan;98780.13;5083817;27;20058;-77
2023/10/10 08:10:13;;;;;;;3.28;2.50;;;;;;;4.20;nan;98768.53;5067209;27;20064;-75
2023/10/10 08:12:38;;;;;;;3.03;2.38;;;;;;;4.27;nan;98786.56;5100535;27;20046;-74
2023/10/10 08:15:19;;;;;;;4.03;3.05;;;;;;;4.26;nan;98778.75;5083044;27;20058;-76
2023/10/10 08:17:52;;;;;;;5.88;3.53;;;;;;;4.21;nan;98784.28;5100026;27;20039;-77
2023/10/10 08:20:34;;;;;;;5.25;3.00;;;;;;;4.25;nan;98788.44;5099405;27;20050;-76
2023/10/10 08:23:01;;;;;;;4.30;3.05;;;;;;;4.34;nan;98781.75;5101116;27;20053;-76
2023/10/10 08:25:26;;;;;;;5.53;3.22;;;;;;;4.37;nan;98784.22;5084174;27;20050;-76
2023/10/10 08:27:51;;;;;;;3.13;2.83;;;;;;;4.41;nan;98782.22;5101905;27;20535;-79
2023/10/10 08:30:17;;;;;;;3.65;2.63;;;;;;;4.49;nan;98787.91;5101829;27;20039;-75
2023/10/10 08:32:43;;;;;;;5.18;3.10;;;;;;;4.56;nan;98818.25;5086464;27;20047;-77
2023/10/10 08:35:10;;;;;;;3.75;2.47;;;;;;;4.69;nan;98804.25;5101348;27;20061;-78
2023/10/10 08:37:36;;;;;;;3.45;1.95;;;;;;;4.74;nan;98810.06;5079904;28;20434;-76
2023/10/10 08:40:15;;;;;;;4.40;2.53;;;;;;;4.77;nan;98802.91;5057623;28;20062;-77
2023/10/10 08:42:43;;;;;;;3.03;2.65;;;;;;;4.85;nan;98809.44;5081930;28;20042;-76
2023/10/10 08:45:22;;;;;;;4.20;2.88;;;;;;;4.94;nan;98802.72;5067887;28;20050;-77
2023/10/10 08:47:58;;;;;;;4.47;1.98;;;;;;;5.03;nan;98812.72;5101574;28;20044;-76
2023/10/10 08:50:24;;;;;;;2.50;2.20;;;;;;;5.03;nan;98816.22;5066221;28;20028;-76
2023/10/10 08:52:51;;;;;;;2.88;2.30;;;;;;;5.06;nan;98817.81;5080751;28;20048;-75
2023/10/10 08:55:19;;;;;;;3.45;2.47;;;;;;;5.13;nan;98813.00;5054682;27;20048;-74
2023/10/10 08:57:51;;;;;;;5.40;2.35;;;;;;;5.12;nan;98830.63;5097882;27;20141;-80
2023/10/10 09:00:17;;;;;;;4.05;2.53;;;;;;;5.17;nan;98825.09;5133421;27;20046;-77
2023/10/10 09:02:44;;;;;;;5.28;2.60;;;;;;;5.25;nan;98828.09;5114866;27;20046;-78
2023/10/10 09:05:14;;;;;;;10.13;2.78;;;;;;;5.31;nan;98854.97;5102000;27;20034;-79
2023/10/10 09:07:43;;;;;;;3.22;2.20;;;;;;;5.35;nan;98840.63;5095069;27;20035;-75
2023/10/10 09:10:13;;;;;;;3.58;2.28;;;;;;;5.34;nan;98833.63;5083986;27;20054;-74
2023/10/10 09:12:55;;;;;;;2.25;1.75;;;;;;;5.37;nan;98838.72;5081991;27;20046;-75
2023/10/10 09:15:22;;;;;;;2.45;1.92;;;;;;;5.29;nan;98841.03;5099684;27;20448;-75
2023/10/10 09:17:48;;;;;;;3.22;2.50;;;;;;;5.27;nan;98842.91;5065146;27;20038;-75
2023/10/10 09:20:28;;;;;;;4.60;2.95;;;;;;;5.29;nan;98840.16;5082377;27;20050;-75
2023/10/10 09:23:11;;;;;;;5.55;2.53;;;;;;;5.24;nan;98837.81;5082747;27;20035;-74
2023/10/10 09:25:57;;;;;;;3.40;2.55;;;;;;;5.19;nan;98850.47;5081829;27;20050;-75
2023/10/10 09:28:30;;;;;;;4.30;2.55;;;;;;;5.15;nan;98842.81;5064500;27;20134;-75
2023/10/10 09:31:02;;;;;;;2.13;1.90;;;;;;;5.14;nan;98846.41;5081594;27;20050;-74
2023/10/10 09:33:30;;;;;;;2.38;2.17;;;;;;;5.10;nan;98851.00;5117722;27;20043;-76
2023/10/10 09:36:09;;;;;;;3.90;3.03;;;;;;;5.13;nan;98853.47;5082605;27;20050;-75
2023/10/10 09:38:46;;;;;;;5.38;2.80;;;;;;;5.12;nan;98864.97;5085064;27;20042;-74
2023/10/10 09:49:40;;;;;;;3.90;2.53;;;;;;;5.13;nan;98871.97;5083588;27;20050;-78
2023/10/10 09:55:02;;;;;;;3.65;2.97;;;;;;;5.03;nan;98860.28;5100933;27;20046;-81
2023/10/10 09:57:31;;;;;;;4.40;2.00;;;;;;;5.04;nan;98873.38;5100621;28;20051;-78
2023/10/10 09:59:56;;;;;;;2.97;2.22;;;;;;;5.07;nan;98867.94;5065668;28;20421;-77
2023/10/10 10:02:40;;;;;;;1.92;1.77;;;;;;;5.31;nan;98870.81;5046782;28;20062;-78
2023/10/10 10:05:14;;;;;;;5.03;1.40;;;;;;;5.71;nan;98868.31;5084995;28;20058;-79
2023/10/10 10:08:09;;;;;;;2.38;2.03;;;;;;;6.12;nan;98866.50;5066968;27;20421;-76
2023/10/10 10:10:48;;;;;;;2.03;1.88;;;;;;;6.33;nan;98866.88;5072230;27;20054;-78
2023/10/10 10:13:39;;;;;;;2.90;2.38;;;;;;;6.72;nan;98871.31;5086166;27;20534;-75
2023/10/10 10:16:20;;;;;;;3.72;2.03;;;;;;;7.17;nan;98869.09;5084838;27;20050;-77
2023/10/10 10:18:47;;;;;;;3.17;2.28;;;;;;;7.54;nan;98862.88;5084037;27;20042;-78
2023/10/10 10:21:31;;;;;;;2.50;1.60;;;;;;;7.93;nan;98864.44;5066642;27;20047;-76
2023/10/10 10:24:15;;;;;;;4.20;2.78;;;;;;;7.95;nan;98873.16;5079401;27;20057;-79
2023/10/10 10:26:43;;;;;;;2.53;2.03;;;;;;;8.04;nan;98871.63;5102862;27;20051;-77
2023/10/10 10:29:22;;;;;;;1.85;1.63;;;;;;;8.14;nan;98875.28;5086673;27;20050;-79
2023/10/10 10:31:57;;;;;;;4.80;2.63;;;;;;;8.12;nan;98879.06;5070107;27;20057;-79
2023/10/10 10:34:31;;;;;;;2.55;2.20;;;;;;;8.00;nan;98871.03;5065368;27;20051;-78
2023/10/10 10:37:13;;;;;;;;;;;;;;;8.14;nan;98872.66;5083209;27;20054;-76
2023/10/10 10:39:46;;;;;;;2.80;1.83;;;;;;;7.68;nan;98884.91;5083626;27;19923;-75
2023/10/10 10:42:12;;;;;;;4.55;2.63;;;;;;;7.39;nan;98890.50;5083229;27;20043;-77
2023/10/10 10:44:58;;;;;;;2.60;2.30;;;;;;;7.23;nan;98879.25;5096527;27;20527;-79
2023/10/10 10:47:45;;;;;;;2.42;1.80;;;;;;;7.07;nan;98884.78;5085404;27;20420;-79
2023/10/10 10:50:40;;;;;;;2.67;2.13;;;;;;;6.87;nan;98878.22;5087878;27;20038;-79
2023/10/10 11:01:28;;;;;;;3.45;2.53;;;;;;;6.17;nan;98901.47;5001441;28;20056;-77
2023/10/10 11:03:55;;;;;;;5.70;2.35;;;;;;;6.07;nan;98929.47;5001416;28;20049;-75
2023/10/10 11:06:24;;;;;;;2.72;1.90;;;;;;;6.01;nan;98916.63;5000612;28;20554;-76
2023/10/10 11:11:36;;;;;;;6.35;2.40;;;;;;;5.96;nan;98915.25;5018074;28;20057;-75
2023/10/10 11:14:19;;;;;;;2.33;2.03;;;;;;;5.99;nan;98915.88;5004588;28;20053;-76
2023/10/10 11:16:45;;;;;;;4.65;3.35;;;;;;;5.97;nan;98917.78;5017532;28;20752;-74
2023/10/10 11:21:55;;;;;;;3.78;2.78;;;;;;;5.96;nan;98916.09;4982916;28;20071;-74
2023/10/10 11:24:26;;;;;;;3.55;2.65;;;;;;;5.95;nan;98924.13;4998578;28;20052;-74
2023/10/10 11:29:45;;;;;;;3.03;2.70;;;;;;;5.98;nan;98930.03;5001592;28;20048;-73
2023/10/10 11:32:15;;;;;;;4.32;1.83;;;;;;;5.89;nan;98924.50;5082087;27;20059;-76
2023/10/10 11:34:44;;;;;;;3.13;2.25;;;;;;;5.78;nan;98933.94;5077806;27;20050;-74
2023/10/10 11:37:14;;;;;;;2.42;2.17;;;;;;;5.74;nan;98942.19;5081192;27;20042;-74
2023/10/10 11:39:57;;;;;;;9.23;2.72;;;;;;;5.66;nan;98944.44;5081455;27;20049;-75
2023/10/10 11:42:30;;;;;;;6.57;2.25;;;;;;;5.70;nan;98952.09;5084271;27;20046;-74
2023/10/10 11:45:06;;;;;;;2.83;1.85;;;;;;;5.82;nan;98948.69;5085979;27;20390;-73
2023/10/10 11:47:42;;;;;;;4.55;2.60;;;;;;;5.93;nan;98955.97;5062807;28;20051;-72
2023/10/10 11:50:11;;;;;;;2.78;1.98;;;;;;;6.03;nan;98953.56;5079438;27;20516;-75
2023/10/10 11:52:56;;;;;;;19.73;2.47;;;;;;;6.14;nan;98966.97;5118272;27;20035;-74
2023/10/10 11:55:22;;;;;;;1.35;1.20;;;;;;;6.12;nan;98959.13;5097976;27;20046;-75
2023/10/10 11:57:49;;;;;;;4.00;1.75;;;;;;;6.10;nan;98987.47;5075996;27;20533;-74
2023/10/10 12:00:22;;;;;;;2.20;1.77;;;;;;;6.12;nan;98964.41;5074805;27;20048;-74
2023/10/10 12:02:49;;;;;;;2.55;1.70;;;;;;;6.05;nan;98963.13;5104629;27;20042;-78
2023/10/10 12:07:58;;;;;;;2.45;1.98;;;;;;;6.16;nan;99033.88;5085300;27;20042;-74
2023/10/10 12:10:29;;;;;;;2.15;1.75;;;;;;;6.17;nan;98972.94;5059539;27;20047;-75
2023/10/10 12:12:55;;;;;;;2.55;1.92;;;;;;;6.12;nan;98984.72;5108438;27;20046;-74
2023/10/10 12:15:22;;;;;;;8.00;2.05;;;;;;;6.00;nan;98973.13;5118268;27;20047;-72
2023/10/10 12:17:48;;;;;;;2.10;1.73;;;;;;;5.85;nan;98976.72;5097646;27;20049;-71
2023/10/10 12:20:16;;;;;;;3.15;2.22;;;;;;;5.71;nan;98989.97;5088422;27;20057;-71
2023/10/10 12:22:41;;;;;;;3.58;2.05;;;;;;;5.61;nan;98994.97;5073427;27;20420;-72
2023/10/10 12:25:13;;;;;;;4.63;2.67;;;;;;;5.50;nan;98991.28;5110407;27;20042;-73
2023/10/10 12:27:49;;;;;;;4.07;2.75;;;;;;;5.45;nan;98999.47;5111347;27;20042;-78
2023/10/10 12:30:18;;;;;;;2.33;1.90;;;;;;;5.37;nan;98999.09;5073053;27;20047;-72
2023/10/10 12:32:44;;;;;;;7.45;2.30;;;;;;;5.30;nan;98996.00;5082843;27;20038;-72
2023/10/10 12:35:10;;;;;;;3.20;2.22;;;;;;;5.19;nan;99003.72;5098152;27;20051;-72
2023/10/10 12:37:37;;;;;;;2.88;1.83;;;;;;;5.15;nan;99006.63;5110976;27;20035;-70
2023/10/10 12:40:08;;;;;;;2.60;1.80;;;;;;;5.15;nan;99010.13;5094166;27;20046;-71
2023/10/10 12:42:35;;;;;;;2.70;2.17;;;;;;;5.18;nan;99001.16;5110347;27;20039;-80
2023/10/10 12:45:01;;;;;;;3.83;2.45;;;;;;;5.22;nan;99008.81;5080925;27;20046;-70
2023/10/10 12:47:31;;;;;;;2.10;1.77;;;;;;;5.31;nan;99018.81;5075303;28;20684;-71
2023/10/10 12:50:00;;;;;;;4.80;2.83;;;;;;;5.35;nan;99020.34;5075568;28;20039;-72
2023/10/10 12:52:35;;;;;;;10.25;2.42;;;;;;;5.38;nan;99021.97;5090850;27;20039;-71
2023/10/10 12:55:00;;;;;;;;;;;;;;;5.53;nan;99033.41;5104187;27;20039;-67
2023/10/10 12:57:32;;;;;;;8.45;2.40;;;;;;;5.37;nan;99026.38;5097770;27;19915;-70
2023/10/10 13:00:23;;;;;;;6.32;2.67;;;;;;;5.37;nan;99028.19;5097697;27;20047;-68
2023/10/10 13:02:42;;;;;;;3.35;2.08;;;;;;;5.38;nan;99040.47;5107426;27;20042;-69
2023/10/10 13:05:07;;;;;;;4.40;2.03;;;;;;;5.38;nan;99030.75;5097763;27;20050;-69
2023/10/10 13:07:35;;;;;;;3.58;2.40;;;;;;;5.35;nan;99041.47;5116178;27;20034;-69
2023/10/10 13:10:10;;;;;;;3.58;2.53;;;;;;;5.34;nan;99037.13;5116162;27;20046;-68
2023/10/10 13:12:36;;;;;;;;;;;;;;;5.48;nan;99047.75;5098378;27;20050;-69
2023/10/10 13:15:27;;;;;;;1.48;1.38;;;;;;;5.33;nan;99043.38;5107650;27;19915;-69
2023/10/10 13:18:19;;;;;;;4.10;2.60;;;;;;;5.31;nan;99045.25;5115911;27;20515;-69
2023/10/10 13:20:41;;;;;;;4.53;2.80;;;;;;;5.24;nan;99054.50;5096711;27;20595;-70
2023/10/10 13:23:06;;;;;;;4.40;2.80;;;;;;;5.22;nan;99052.88;5097412;27;20038;-69
2023/10/10 13:25:37;;;;;;;2.33;2.13;;;;;;;5.27;nan;99064.03;5115980;27;20042;-69
2023/10/10 13:28:09;;;;;;;3.08;2.53;;;;;;;5.21;nan;99059.94;5079376;27;20050;-70
2023/10/10 13:30:35;;;;;;;2.30;2.00;;;;;;;5.17;nan;99152.72;5116048;27;20043;-70
2023/10/10 13:33:01;;;;;;;3.88;2.05;;;;;;;5.18;nan;99070.72;5116008;27;20039;-68
2023/10/10 13:35:26;;;;;;;1.85;1.75;;;;;;;5.17;nan;99073.44;5097256;27;20046;-69
2023/10/10 13:37:51;;;;;;;2.67;1.95;;;;;;;5.15;nan;99060.31;5096480;27;20054;-71
2023/10/10 13:40:22;;;;;;;3.25;2.20;;;;;;;5.13;nan;99067.47;5115828;27;20065;-69
2023/10/10 13:42:48;;;;;;;2.95;2.30;;;;;;;5.13;nan;99040.22;5115619;27;20046;-69
2023/10/10 13:45:18;;;;;;;4.90;2.17;;;;;;;5.00;nan;99082.34;5115531;27;20055;-69
2023/10/10 13:47:48;;;;;;;4.53;2.95;;;;;;;4.94;nan;99078.28;5115778;27;20047;-71
2023/10/10 13:50:28;;;;;;;3.33;2.70;;;;;;;4.93;nan;99088.91;5115909;27;20060;-70
2023/10/10 13:52:53;;;;;;;3.45;2.90;;;;;;;4.93;nan;99086.28;5115201;27;20043;-72
2023/10/10 13:55:18;;;;;;;2.90;1.80;;;;;;;4.89;nan;99100.59;5080190;27;20054;-68
2023/10/10 13:57:44;;;;;;;2.38;1.98;;;;;;;4.85;nan;99099.09;5115806;27;20034;-68
2023/10/10 14:02:59;;;;;;;2.42;1.98;;;;;;;4.71;nan;99098.06;5116948;27;20043;-71
2023/10/10 14:05:29;;;;;;;5.50;1.60;;;;;;;4.62;nan;99103.88;5115620;27;20051;-69
2023/10/10 14:07:55;;;;;;;1.55;1.33;;;;;;;4.55;nan;99114.84;5115232;27;20047;-68
2023/10/10 14:10:20;;;;;;;2.65;1.83;;;;;;;4.46;nan;99108.28;5115127;27;20043;-69
2023/10/10 14:12:46;;;;;;;2.42;1.88;;;;;;;4.36;nan;99113.22;5080077;27;20624;-68
2023/10/10 14:15:11;;;;;;;3.33;1.88;;;;;;;4.35;nan;99115.94;5096665;27;20046;-69
2023/10/10 14:17:37;;;;;;;2.47;1.75;;;;;;;4.30;nan;99128.50;5080141;27;20045;-70
2023/10/10 14:20:19;;;;;;;5.82;2.35;;;;;;;4.27;nan;99126.06;5080015;27;20050;-68
2023/10/10 14:22:45;;;;;;;5.05;2.30;;;;;;;4.27;nan;99131.34;5115914;27;20519;-73
2023/10/10 14:25:12;;;;;;;2.17;1.85;;;;;;;4.25;nan;99146.41;5103979;27;20050;-72
2023/10/10 14:27:43;;;;;;;1.90;1.27;;;;;;;4.22;nan;99162.38;5100965;27;20046;-73
2023/10/10 14:30:21;;;;;;;3.63;2.03;;;;;;;4.15;nan;99124.09;5089623;27;20050;-72
2023/10/10 14:32:53;;;;;;;2.67;2.13;;;;;;;4.12;nan;99156.75;5111624;27;20477;-70
2023/10/10 14:35:22;;;;;;;1.88;1.52;;;;;;;4.07;nan;99163.19;5092991;27;20069;-71
2023/10/10 14:37:49;;;;;;;3.45;2.30;;;;;;;4.04;nan;99174.78;5074076;27;20051;-68
2023/10/10 14:40:15;;;;;;;1.77;1.52;;;;;;;3.98;nan;99175.94;5090678;27;20117;-70
2023/10/10 14:42:41;;;;;;;4.43;2.65;;;;;;;3.95;nan;99181.34;5096651;27;20035;-68
2023/10/10 14:45:06;;;;;;;2.78;1.85;;;;;;;3.95;nan;99186.63;5114921;27;20054;-69
2023/10/10 14:47:33;;;;;;;3.47;2.17;;;;;;;3.96;nan;99187.47;5115411;27;20043;-69
2023/10/10 14:50:06;;;;;;;3.35;1.98;;;;;;;3.94;nan;99189.38;5062397;28;20043;-71
2023/10/10 14:52:36;;;;;;;2.85;1.75;;;;;;;3.91;nan;99185.09;5078341;27;20039;-72
2023/10/10 14:55:07;;;;;;;2.17;1.70;;;;;;;3.91;nan;99200.94;5095248;27;20062;-71
2023/10/10 14:57:34;;;;;;;4.43;3.95;;;;;;;3.88;nan;99216.91;5079850;27;20050;-68
2023/10/10 14:59:59;;;;;;;2.33;2.03;;;;;;;3.90;nan;99208.91;5115444;27;20039;-69
2023/10/10 15:02:27;;;;;;;2.25;1.92;;;;;;;3.89;nan;99212.47;5115088;27;20039;-69
2023/10/10 15:04:54;;;;;;;3.08;2.40;;;;;;;3.89;nan;99217.75;5086491;27;20052;-70
2023/10/10 15:07:19;;;;;;;6.65;2.50;;;;;;;3.87;nan;99310.13;5110340;27;20513;-70
2023/10/10 15:09:44;;;;;;;3.50;2.22;;;;;;;3.81;nan;99189.16;5102874;27;20043;-70
2023/10/10 15:12:12;;;;;;;2.60;1.92;;;;;;;3.73;nan;99285.34;5087724;27;20039;-72
2023/10/10 15:14:37;;;;;;;2.55;1.75;;;;;;;3.66;nan;99221.53;5085303;27;20047;-70
2023/10/10 15:17:04;;;;;;;6.65;2.30;;;;;;;3.59;nan;99231.56;5085516;27;20039;-68
2023/10/10 15:19:30;;;;;;;3.50;2.58;;;;;;;3.53;nan;99231.84;5076920;28;20070;-63
2023/10/10 15:21:56;;;;;;;4.05;2.25;;;;;;;3.49;nan;99237.34;5058338;28;20048;-64
2023/10/10 15:24:23;;;;;;;3.45;2.40;;;;;;;3.51;nan;99248.66;5058511;28;20051;-65
2023/10/10 15:26:51;;;;;;;4.75;2.65;;;;;;;3.50;nan;99247.78;5087550;27;20412;-66